Time;durP1;ratioP1;P1;durP2;ratioP2;P2;SDS_P1;SDS_P2;PMS_P1;PMS_P2;Temp;Humidity;BMP_temperature;BMP_pressure;BME280_temperature;BME280_humidity;BME280_pressure;Samples;Min_cycle;Max_cycle;Signal;HPM_P1;HPM_P2
2022/01/14 00:00:51;;;;;;;3.33;0.77;;;6.50;99.90;5.60;100290;;;;538780;259;24213;-75
2022/01/14 00:03:19;;;;;;;1.70;1.33;;;6.50;99.90;5.60;100287;;;;563439;253;24098;-75
2022/01/14 00:05:47;;;;;;;6.57;1.70;;;6.50;99.90;5.60;100292;;;;548924;257;24269;-75
2022/01/14 00:08:15;;;;;;;8.70;1.73;;;6.40;99.90;5.60;100303;;;;545126;259;24201;-74
2022/01/14 00:10:48;;;;;;;2.60;1.43;;;6.40;99.90;5.60;100316;;;;541857;256;24175;-75
2022/01/14 00:13:36;;;;;;;3.50;1.00;;;6.40;99.90;5.60;100283;;;;554677;254;24126;-77
2022/01/14 00:15:38;;;;;;;0.60;0.60;;;6.50;99.90;5.60;100265;;;;543226;252;24167;-75
2022/01/14 00:18:07;;;;;;;1.23;1.13;;;6.50;99.90;5.60;100256;;;;551984;253;24133;-75
2022/01/14 00:20:35;;;;;;;2.90;0.90;;;6.40;99.90;5.60;100263;;;;542063;256;24152;-76
2022/01/14 00:23:03;;;;;;;1.57;1.03;;;6.40;99.90;5.60;100269;;;;554892;254;24130;-75
2022/01/14 00:33:34;;;;;;;1.83;0.93;;;6.40;99.90;5.60;100230;;;;555479;254;24143;-74
2022/01/14 00:36:02;;;;;;;1.47;1.00;;;6.40;99.90;5.60;100215;;;;563643;253;24104;-74
2022/01/14 00:38:30;;;;;;;1.40;0.97;;;6.40;99.90;5.60;100242;;;;549248;257;25311;-75
2022/01/14 00:40:58;;;;;;;1.03;0.90;;;6.40;99.90;5.60;100217;;;;545295;259;24192;-74
2022/01/14 00:43:29;;;;;;;1.87;1.30;;;6.50;99.90;5.60;100236;;;;564781;245;24093;-75
2022/01/14 00:45:55;;;;;;;3.10;1.30;;;6.50;99.90;5.60;100207;;;;556483;250;24152;-75
2022/01/14 00:48:22;;;;;;;1.87;1.33;;;6.50;99.90;5.60;100204;;;;553468;253;24108;-75
2022/01/14 00:50:53;;;;;;;3.37;1.23;;;6.50;99.90;5.60;100214;;;;564282;250;24170;-75
2022/01/14 00:53:18;;;;;;;0.33;0.33;;;6.50;99.90;5.60;100220;;;;557875;254;24174;-72
2022/01/14 00:55:53;;;;;;;1.33;0.83;;;6.50;99.90;5.60;100219;;;;545893;257;24145;-76
2022/01/14 01:01:00;;;;;;;1.13;0.80;;;6.50;99.90;5.60;100215;;;;563600;252;24175;-73
2022/01/14 01:03:29;;;;;;;1.40;1.07;;;6.50;99.90;5.60;100202;;;;542199;255;24149;-74
2022/01/14 01:05:56;;;;;;;0.50;0.50;;;6.50;99.90;5.60;100205;;;;552160;254;24142;-74
2022/01/14 01:08:26;;;;;;;1.43;1.00;;;6.50;99.90;5.60;100188;;;;564348;253;24126;-75
2022/01/14 01:10:52;;;;;;;2.63;1.20;;;6.50;99.90;5.60;100169;;;;554931;254;24139;-76
2022/01/14 01:13:30;;;;;;;3.43;1.20;;;6.50;99.90;5.60;100199;;;;547766;257;24311;-74
2022/01/14 01:15:51;;;;;;;2.10;1.00;;;6.50;99.90;5.60;100195;;;;545553;257;24164;-78
2022/01/14 01:18:19;;;;;;;3.60;0.70;;;6.50;99.90;5.60;100207;;;;553891;257;24212;-76
2022/01/14 01:20:50;;;;;;;2.53;0.90;;;6.40;99.90;5.60;100186;;;;552988;254;24119;-77
2022/01/14 01:23:21;;;;;;;3.53;1.03;;;6.50;99.90;5.70;100184;;;;553144;254;24176;-76
2022/01/14 01:25:52;;;;;;;1.03;0.70;;;6.50;99.90;5.70;100185;;;;554684;254;24144;-75
2022/01/14 01:28:14;;;;;;;3.50;0.83;;;6.50;99.90;5.70;100184;;;;562638;247;24138;-76
2022/01/14 01:30:51;;;;;;;2.35;1.27;;;6.50;99.90;5.70;100190;;;;550597;254;35065;-75
2022/01/14 01:33:16;;;;;;;2.90;1.10;;;6.50;99.90;5.70;100186;;;;556798;253;24169;-74
2022/01/14 01:35:48;;;;;;;4.20;1.23;;;6.50;99.90;5.70;100194;;;;544788;259;24194;-74
2022/01/14 01:38:16;;;;;;;0.20;0.20;;;6.50;99.90;5.70;100187;;;;553735;253;24214;-74
2022/01/14 01:40:40;;;;;;;3.40;0.80;;;6.60;99.90;5.80;100197;;;;554866;254;24136;-78
2022/01/14 01:43:11;;;;;;;3.17;0.53;;;6.60;99.90;5.80;100204;;;;542294;256;24153;-75
2022/01/14 01:45:41;;;;;;;2.20;0.33;;;6.60;99.90;5.70;100196;;;;555140;248;24130;-74
2022/01/14 01:48:04;;;;;;;0.43;0.43;;;6.60;99.90;5.80;100191;;;;562954;250;24121;-78
2022/01/14 01:50:36;;;;;;;4.27;0.70;;;6.60;99.90;5.80;100193;;;;564427;247;24105;-77
2022/01/14 01:53:00;;;;;;;1.30;0.90;;;6.60;99.90;5.70;100173;;;;557005;253;24214;-78
2022/01/14 01:55:28;;;;;;;1.37;1.17;;;6.60;99.90;5.70;100188;;;;545683;258;24175;-77
2022/01/14 01:57:56;;;;;;;3.33;1.10;;;6.50;99.90;5.70;100175;;;;554286;256;24140;-77
2022/01/14 02:00:25;;;;;;;1.00;0.80;;;6.50;99.90;5.70;100174;;;;553139;254;24185;-78
2022/01/14 02:02:54;;;;;;;0.73;0.73;;;6.50;99.90;5.70;100178;;;;553475;256;24154;-78
2022/01/14 02:05:24;;;;;;;4.03;0.93;;;6.50;99.90;5.70;100164;;;;555294;254;24135;-79
2022/01/14 02:07:48;;;;;;;0.97;0.97;;;6.50;99.90;5.70;100143;;;;553512;255;24165;-78
2022/01/14 02:10:16;;;;;;;1.17;0.40;;;6.50;99.90;5.70;100147;;;;563604;252;24137;-77
2022/01/14 02:12:50;;;;;;;2.50;1.00;;;6.50;99.90;5.70;100138;;;;548010;257;24196;-79
2022/01/14 02:15:27;;;;;;;0.90;0.60;;;6.50;99.90;5.70;100158;;;;544970;259;24186;-78
2022/01/14 02:23:16;;;;;;;3.13;1.23;;;6.50;99.90;5.70;100132;;;;545183;259;24148;-78
2022/01/14 02:25:45;;;;;;;4.97;0.40;;;6.60;99.90;5.70;100111;;;;542256;251;24153;-78
2022/01/14 02:28:14;;;;;;;1.73;0.63;;;6.60;99.90;5.70;100101;;;;554985;254;24146;-76
2022/01/14 02:30:41;;;;;;;0.67;0.67;;;6.50;99.90;5.80;100111;;;;554743;253;24090;-75
2022/01/14 02:33:13;;;;;;;2.00;0.73;;;6.60;99.90;5.80;100099;;;;563155;253;24079;-74
2022/01/14 02:35:40;;;;;;;0.50;0.50;;;6.60;99.90;5.80;100076;;;;548592;257;24159;-76
2022/01/14 02:38:08;;;;;;;1.93;0.30;;;6.70;99.90;5.80;100108;;;;545015;258;24185;-74
2022/01/14 02:40:33;;;;;;;1.57;0.63;;;6.70;99.90;5.90;100083;;;;554651;251;24091;-76
2022/01/14 02:43:02;;;;;;;1.03;0.67;;;6.70;99.90;5.90;100103;;;;563496;248;24086;-74
2022/01/14 02:45:33;;;;;;;0.70;0.67;;;6.70;99.90;5.90;100094;;;;555112;254;24126;-75
2022/01/14 02:48:00;;;;;;;1.00;0.70;;;6.70;99.90;5.90;100088;;;;563301;247;24372;-75
2022/01/14 02:50:36;;;;;;;0.30;0.30;;;6.70;99.90;5.90;100087;;;;557116;257;24162;-74
2022/01/14 02:52:58;;;;;;;0.60;0.60;;;6.70;99.90;5.90;100063;;;;545786;259;24150;-74
2022/01/14 02:55:28;;;;;;;1.60;0.60;;;6.70;99.90;5.90;100068;;;;545664;259;24145;-74
2022/01/14 02:57:52;;;;;;;0.57;0.53;;;6.80;99.90;5.90;100074;;;;555216;253;24110;-74
2022/01/14 03:00:26;;;;;;;0.20;0.20;;;6.70;99.90;5.90;100051;;;;542250;259;24161;-75
2022/01/14 03:02:53;;;;;;;0.30;0.30;;;6.70;99.90;5.90;100064;;;;563076;251;24128;-75
2022/01/14 03:05:24;;;;;;;1.07;0.67;;;6.70;99.90;5.90;100068;;;;541829;256;24175;-76
2022/01/14 03:07:49;;;;;;;0.17;0.17;;;6.70;99.90;5.80;100026;;;;555766;254;24089;-74
2022/01/14 03:10:20;;;;;;;0.23;0.23;;;6.70;99.90;5.90;100046;;;;557819;252;24229;-75
2022/01/14 03:12:49;;;;;;;1.00;0.47;;;6.70;99.90;5.90;100068;;;;539291;259;24253;-76
2022/01/14 03:15:16;;;;;;;0.40;0.30;;;6.70;99.90;5.90;100063;;;;562268;244;24130;-81
2022/01/14 03:17:41;;;;;;;0.77;0.50;;;6.70;99.90;5.80;100062;;;;570935;251;25337;-81
2022/01/14 03:20:11;;;;;;;0.93;0.57;;;6.70;99.90;5.90;100051;;;;547856;252;24154;-81
2022/01/14 03:22:41;;;;;;;2.63;0.40;;;6.70;99.90;5.90;100048;;;;563063;251;24095;-82
2022/01/14 03:27:53;;;;;;;1.20;0.83;;;6.70;99.90;5.90;100048;;;;561645;250;24089;-81
2022/01/14 03:30:21;;;;;;;0.30;0.27;;;6.70;99.90;5.90;100051;;;;562630;248;24116;-81
2022/01/14 03:32:46;;;;;;;0.83;0.70;;;6.70;99.90;5.90;100044;;;;560599;252;24172;-81
2022/01/14 03:35:14;;;;;;;1.10;0.50;;;6.70;99.90;5.90;100035;;;;547685;254;24161;-81
2022/01/14 03:37:42;;;;;;;0.83;0.70;;;6.70;99.90;5.90;100030;;;;571521;249;24116;-80
2022/01/14 03:40:14;;;;;;;1.00;0.57;;;6.70;99.90;6.00;100033;;;;561370;253;24099;-81
2022/01/14 03:42:38;;;;;;;2.67;0.87;;;6.80;99.90;5.90;100021;;;;565862;253;24104;-80
2022/01/14 03:45:09;;;;;;;0.83;0.77;;;6.80;99.90;6.00;100043;;;;563073;250;24131;-80
2022/01/14 03:47:34;;;;;;;0.37;0.37;;;6.80;99.90;6.00;100021;;;;557613;254;24158;-81
2022/01/14 03:50:05;;;;;;;1.87;0.97;;;6.80;99.90;6.00;100032;;;;566538;248;35269;-80
2022/01/14 03:52:31;;;;;;;2.33;0.95;;;6.80;99.90;6.00;100000;;;;556879;253;35082;-81
2022/01/14 03:54:58;;;;;;;1.02;0.77;;;6.90;99.90;6.00;100024;;;;561960;247;46147;-80
2022/01/14 03:57:26;;;;;;;3.00;0.80;;;6.90;99.90;6.10;100034;;;;571484;249;24111;-80
2022/01/14 03:59:53;;;;;;;1.47;1.27;;;6.90;99.90;6.10;100036;;;;560913;254;24103;-82
2022/01/14 04:02:21;;;;;;;2.37;0.43;;;6.90;99.90;6.10;100047;;;;562657;250;24170;-81
2022/01/14 04:04:49;;;;;;;2.93;1.13;;;6.90;99.90;6.10;100019;;;;547398;256;24094;-81
2022/01/14 04:07:17;;;;;;;1.80;1.07;;;6.90;99.90;6.20;100019;;;;569521;246;24162;-81
2022/01/14 04:09:45;;;;;;;1.93;1.10;;;7.00;99.90;6.10;100015;;;;556282;252;24100;-80
2022/01/14 04:12:19;;;;;;;3.73;1.40;;;7.00;99.90;6.10;100020;;;;547836;256;24141;-81
2022/01/14 04:17:09;;;;;;;1.07;0.77;;;6.90;99.90;6.00;99970;;;;561164;254;24182;-80
2022/01/14 04:19:37;;;;;;;0.57;0.57;;;6.90;99.90;6.00;99973;;;;547768;260;24185;-81
2022/01/14 04:22:08;;;;;;;1.90;0.67;;;6.80;99.90;6.00;99966;;;;554121;253;24120;-80
2022/01/14 04:24:32;;;;;;;1.70;0.77;;;6.80;99.90;6.00;99991;;;;561555;255;24138;-83
2022/01/14 04:27:00;;;;;;;0.93;0.67;;;6.80;99.90;6.10;99974;;;;538324;261;24165;-81
2022/01/14 04:29:29;;;;;;;1.83;0.40;;;6.90;99.90;6.10;99952;;;;553727;255;24159;-82
2022/01/14 04:31:57;;;;;;;3.77;1.00;;;6.90;99.90;6.10;99961;;;;534366;262;26306;-79
2022/01/14 04:34:26;;;;;;;1.70;1.03;;;7.00;99.90;6.20;99935;;;;553618;255;24166;-81
2022/01/14 04:36:54;;;;;;;1.73;0.60;;;7.00;99.90;6.20;99948;;;;543425;257;24142;-80
2022/01/14 04:39:22;;;;;;;1.37;0.63;;;7.00;99.90;6.20;99942;;;;539061;260;24173;-81
2022/01/14 04:41:50;;;;;;;0.97;0.63;;;7.00;99.90;6.20;99938;;;;543414;260;24136;-81
2022/01/14 04:44:18;;;;;;;1.77;0.90;;;7.10;99.90;6.20;99937;;;;548064;256;24150;-80
2022/01/14 04:47:00;;;;;;;6.50;0.83;;;7.10;99.90;6.30;99951;;;;553423;255;24172;-81
2022/01/14 04:49:14;;;;;;;4.33;1.30;;;7.10;99.90;6.30;99923;;;;543286;258;24192;-80
2022/01/14 04:51:42;;;;;;;3.97;1.40;;;7.10;99.90;6.30;99907;;;;543447;257;24110;-81
2022/01/14 04:54:10;;;;;;;8.10;1.37;;;7.10;99.90;6.30;99941;;;;543334;260;24143;-81
2022/01/14 04:56:37;;;;;;;3.80;1.30;;;7.10;99.90;6.30;99929;;;;560743;255;24152;-81
2022/01/14 04:59:08;;;;;;;3.73;1.07;;;7.10;99.90;6.40;99924;;;;537794;256;24153;-81
2022/01/14 05:01:33;;;;;;;4.07;1.53;;;7.20;99.90;6.40;99924;;;;554043;258;24140;-80
2022/01/14 05:04:01;;;;;;;0.70;0.70;;;7.20;99.90;6.40;99930;;;;553463;256;24094;-80
2022/01/14 05:06:30;;;;;;;1.63;1.00;;;7.20;99.90;6.40;99932;;;;543607;260;24096;-81
2022/01/14 05:08:57;;;;;;;4.03;1.20;;;7.20;99.90;6.40;99919;;;;551486;257;24146;-81
2022/01/14 05:11:37;;;;;;;4.97;2.03;;;7.30;99.90;6.40;99945;;;;547812;258;24123;-82
2022/01/14 05:13:53;;;;;;;2.00;1.00;;;7.30;99.90;6.40;99926;;;;552199;256;24135;-81
2022/01/14 05:16:21;;;;;;;9.53;1.83;;;7.30;99.90;6.40;99920;;;;543084;260;24109;-80
2022/01/14 05:18:48;;;;;;;4.73;1.03;;;7.20;99.90;6.50;99914;;;;543001;260;24170;-81
2022/01/14 05:21:20;;;;;;;5.33;1.43;;;7.30;99.90;6.40;99923;;;;547821;256;24218;-81
2022/01/14 05:23:44;;;;;;;1.83;1.13;;;7.30;99.90;6.40;99934;;;;552239;256;24117;-80
2022/01/14 05:26:12;;;;;;;2.43;0.53;;;7.20;99.90;6.40;99897;;;;542975;260;24109;-80
2022/01/14 05:28:41;;;;;;;6.50;1.37;;;7.20;99.90;6.40;99933;;;;538793;260;24126;-81
2022/01/14 05:31:09;;;;;;;1.37;1.07;;;7.20;99.90;6.30;99957;;;;539647;260;24147;-81
2022/01/14 05:33:41;;;;;;;9.20;1.53;;;7.20;99.90;6.30;99915;;;;544078;260;24124;-80
2022/01/14 05:36:05;;;;;;;5.90;1.33;;;7.10;99.90;6.30;99888;;;;548416;256;24132;-81
2022/01/14 05:38:33;;;;;;;9.30;2.03;;;7.10;99.90;6.30;99911;;;;553536;255;24148;-81
2022/01/14 05:41:02;;;;;;;3.47;1.10;;;7.10;99.90;6.20;99900;;;;570038;246;24126;-80
2022/01/14 05:43:30;;;;;;;5.13;1.10;;;7.10;99.90;6.20;99897;;;;547101;260;24188;-81
2022/01/14 05:45:58;;;;;;;2.23;1.50;;;7.00;99.90;6.20;99884;;;;553354;253;24140;-80
2022/01/14 05:48:26;;;;;;;2.27;1.67;;;7.00;99.90;6.20;99896;;;;543460;260;24127;-80
2022/01/14 05:50:55;;;;;;;1.50;1.03;;;7.00;99.90;6.10;99872;;;;543407;258;24102;-81
2022/01/14 05:53:22;;;;;;;0.50;0.50;;;7.00;99.90;6.10;99901;;;;543273;260;24136;-80
2022/01/14 05:55:50;;;;;;;10.83;1.07;;;6.90;99.90;6.10;99882;;;;547937;258;24140;-81
2022/01/14 05:58:18;;;;;;;6.00;1.67;;;7.00;99.90;6.10;99892;;;;553257;255;24196;-81
2022/01/14 06:00:46;;;;;;;0.83;0.83;;;6.90;99.90;6.10;99886;;;;547004;259;24132;-81
2022/01/14 06:03:14;;;;;;;3.20;1.20;;;6.90;99.90;6.10;99900;;;;553308;254;24182;-81
2022/01/14 06:05:43;;;;;;;1.33;1.20;;;7.00;99.90;6.10;99882;;;;539432;260;24102;-80
2022/01/14 06:08:10;;;;;;;0.83;0.67;;;6.90;99.90;6.20;99911;;;;538834;260;24155;-80
2022/01/14 06:10:43;;;;;;;2.90;1.10;;;7.00;99.90;6.20;99891;;;;547820;256;24138;-78
2022/01/14 06:13:10;;;;;;;1.77;0.73;;;7.00;99.90;6.20;99898;;;;552441;256;24196;-80
2022/01/14 06:15:35;;;;;;;0.43;0.43;;;7.00;99.90;6.20;99892;;;;547798;258;24142;-81
2022/01/14 06:18:06;;;;;;;1.83;1.07;;;7.00;99.90;6.20;99887;;;;552914;254;24112;-80
2022/01/14 06:20:31;;;;;;;2.90;1.00;;;7.00;99.90;6.20;99908;;;;546596;256;24125;-81
2022/01/14 06:22:59;;;;;;;1.53;1.23;;;7.00;99.90;6.20;99917;;;;547735;258;24098;-80
2022/01/14 06:25:27;;;;;;;2.43;0.90;;;7.10;99.90;6.30;99892;;;;552767;256;24202;-81
2022/01/14 06:27:55;;;;;;;4.77;2.27;;;7.10;99.90;6.20;99912;;;;543163;260;24114;-81
2022/01/14 06:30:24;;;;;;;5.87;1.90;;;7.10;99.90;6.30;99893;;;;547728;256;24110;-81
2022/01/14 06:32:52;;;;;;;3.13;1.30;;;7.10;99.90;6.30;99897;;;;561219;253;24131;-80
2022/01/14 06:35:20;;;;;;;3.60;1.20;;;7.10;99.90;6.30;99891;;;;538070;259;24153;-80
2022/01/14 06:37:49;;;;;;;3.87;1.57;;;7.10;99.90;6.30;99919;;;;546909;251;24211;-79
2022/01/14 06:40:17;;;;;;;5.53;2.40;;;7.20;99.90;6.30;99916;;;;561121;254;24129;-81
2022/01/14 06:42:45;;;;;;;4.70;1.43;;;7.10;99.90;6.30;99921;;;;543985;260;24270;-81
2022/01/14 06:45:13;;;;;;;8.07;2.93;;;7.10;99.90;6.40;99896;;;;548927;257;24127;-81
2022/01/14 06:47:41;;;;;;;4.17;1.47;;;7.20;99.90;6.40;99907;;;;561751;253;24120;-82
2022/01/14 06:50:09;;;;;;;8.53;2.00;;;7.20;99.90;6.40;99897;;;;543779;257;24146;-82
2022/01/14 06:52:38;;;;;;;7.10;2.30;;;7.20;99.90;6.30;99887;;;;550976;258;24093;-82
2022/01/14 06:55:09;;;;;;;3.10;1.60;;;7.10;99.90;6.30;99901;;;;548126;258;24196;-80
2022/01/14 06:57:37;;;;;;;3.50;1.20;;;7.20;99.90;6.40;99908;;;;551131;255;24147;-81
2022/01/14 07:00:01;;;;;;;2.07;1.23;;;7.20;99.90;6.40;99904;;;;547973;258;24113;-81
2022/01/14 07:02:29;;;;;;;3.60;1.10;;;7.20;99.90;6.40;99913;;;;561336;253;24140;-82
2022/01/14 07:04:58;;;;;;;2.50;1.53;;;7.20;99.90;6.30;99926;;;;543306;260;24114;-81
2022/01/14 07:07:26;;;;;;;5.20;1.77;;;7.20;99.90;6.30;99931;;;;543453;260;24175;-81
2022/01/14 07:09:57;;;;;;;2.50;1.40;;;7.10;99.90;6.40;99927;;;;543274;260;24114;-82
2022/01/14 07:12:25;;;;;;;2.27;1.13;;;7.20;99.90;6.40;99933;;;;543245;260;24145;-82
2022/01/14 07:14:49;;;;;;;3.07;1.87;;;7.20;99.90;6.40;99931;;;;547838;258;24117;-82
2022/01/14 07:17:18;;;;;;;5.93;1.93;;;7.30;99.90;6.50;99940;;;;561307;254;24188;-81
2022/01/14 07:19:49;;;;;;;2.17;0.90;;;7.30;99.90;6.60;99936;;;;543129;255;24115;-82
2022/01/14 07:22:14;;;;;;;3.97;1.43;;;7.40;99.90;6.60;99914;;;;551248;260;24142;-82
2022/01/14 07:24:42;;;;;;;9.33;1.93;;;7.40;99.90;6.70;99907;;;;547710;258;24109;-82
2022/01/14 07:27:10;;;;;;;5.93;1.60;;;7.50;99.90;6.70;99903;;;;552978;256;24145;-81
2022/01/14 07:29:38;;;;;;;2.40;0.90;;;7.60;99.90;6.90;99905;;;;542990;260;24106;-82
2022/01/14 07:32:06;;;;;;;5.73;1.53;;;7.60;99.90;6.90;99898;;;;543127;260;24102;-81
2022/01/14 07:34:38;;;;;;;9.37;1.90;;;7.80;99.90;7.00;99902;;;;551337;254;24119;-81
2022/01/14 07:37:03;;;;;;;2.90;1.53;;;7.80;99.90;7.20;99914;;;;542910;258;24160;-81
2022/01/14 07:39:34;;;;;;;3.87;1.00;;;8.00;99.90;7.30;99909;;;;547780;258;24145;-79
2022/01/14 07:41:59;;;;;;;3.10;1.73;;;8.00;99.90;7.40;99907;;;;560471;250;24147;-81
2022/01/14 07:44:27;;;;;;;1.97;0.93;;;8.10;99.90;7.50;99903;;;;543071;260;24161;-81
2022/01/14 07:46:55;;;;;;;2.83;0.67;;;8.20;99.90;7.50;99911;;;;542992;260;24129;-81
2022/01/14 07:49:23;;;;;;;7.07;1.40;;;8.30;99.90;7.60;99905;;;;542906;260;24097;-82
2022/01/14 07:51:51;;;;;;;2.83;0.93;;;8.30;99.90;7.70;99952;;;;547754;258;24137;-82
2022/01/14 07:54:22;;;;;;;2.03;0.90;;;8.40;99.90;7.70;99908;;;;553930;255;24182;-80
2022/01/14 07:56:47;;;;;;;6.43;1.50;;;8.40;99.90;7.70;99915;;;;547622;258;24181;-80
2022/01/14 07:59:15;;;;;;;7.47;2.10;;;8.50;99.90;7.70;99943;;;;556905;255;35432;-81
2022/01/14 08:01:46;;;;;;;2.83;1.03;;;8.50;99.90;7.70;99914;;;;546195;256;25515;-81
2022/01/14 08:04:12;;;;;;;6.13;1.40;;;8.50;99.90;7.70;99912;;;;553566;255;24138;-81
2022/01/14 08:06:45;;;;;;;2.30;1.17;;;8.50;99.90;7.70;99920;;;;543646;260;24162;-81
2022/01/14 08:09:07;;;;;;;10.70;1.97;;;8.50;99.90;7.70;99916;;;;551333;260;24113;-82
2022/01/14 08:11:36;;;;;;;4.03;1.37;;;8.50;99.90;7.70;99934;;;;543735;258;24150;-81
2022/01/14 08:14:04;;;;;;;3.17;1.00;;;8.50;99.90;7.70;99929;;;;548311;257;24144;-80
2022/01/14 08:16:31;;;;;;;3.17;1.20;;;8.50;99.90;7.70;99913;;;;553545;255;24166;-81
2022/01/14 08:18:59;;;;;;;5.50;1.20;;;8.50;99.90;7.60;99936;;;;570199;248;24111;-79
2022/01/14 08:21:27;;;;;;;5.70;0.90;;;8.40;99.90;7.70;99960;;;;547297;256;24119;-82
2022/01/14 08:23:55;;;;;;;5.53;0.77;;;8.40;99.90;7.60;99938;;;;553478;255;24145;-81
2022/01/14 08:26:27;;;;;;;4.93;1.33;;;8.40;99.90;7.60;99948;;;;556759;251;24210;-80
2022/01/14 08:28:51;;;;;;;4.37;1.07;;;8.40;99.90;7.70;99926;;;;553245;256;24121;-81
2022/01/14 08:31:19;;;;;;;5.03;1.43;;;8.40;99.90;7.70;99918;;;;543309;260;24100;-81
2022/01/14 08:33:47;;;;;;;4.90;1.57;;;8.50;99.90;7.70;99932;;;;560999;255;24123;-81
2022/01/14 08:36:15;;;;;;;6.80;1.10;;;8.50;99.90;7.80;99924;;;;547029;256;24139;-80
2022/01/14 08:38:43;;;;;;;2.53;1.10;;;8.60;99.90;7.90;99928;;;;553242;256;24137;-82
2022/01/14 08:41:11;;;;;;;1.63;1.00;;;8.80;99.90;8.10;99955;;;;569879;248;24261;-81
2022/01/14 08:43:39;;;;;;;4.53;1.37;;;8.80;99.90;8.20;99950;;;;547025;260;24188;-80
2022/01/14 08:46:07;;;;;;;0.90;0.57;;;8.90;99.90;8.20;99960;;;;553296;256;24126;-82
2022/01/14 08:48:39;;;;;;;1.87;0.93;;;9.00;99.90;8.20;99946;;;;543414;258;24125;-81
2022/01/14 08:51:03;;;;;;;4.40;1.10;;;9.00;99.90;8.20;99948;;;;542811;260;24152;-80
2022/01/14 08:53:31;;;;;;;3.60;1.10;;;9.00;99.90;8.20;99941;;;;547649;258;24152;-81
2022/01/14 08:56:01;;;;;;;6.10;1.57;;;9.00;99.90;8.20;99927;;;;553023;256;24116;-81
2022/01/14 08:58:27;;;;;;;7.20;1.80;;;9.00;99.90;8.20;99960;;;;547600;258;24189;-80
2022/01/14 09:00:54;;;;;;;3.87;1.10;;;9.00;99.90;8.10;99960;;;;552906;256;24119;-80
2022/01/14 09:03:22;;;;;;;7.10;1.03;;;9.00;99.90;8.10;99957;;;;543015;260;24179;-81
2022/01/14 09:05:50;;;;;;;2.20;1.13;;;9.00;99.90;8.20;99986;;;;544068;260;24112;-81
2022/01/14 09:08:18;;;;;;;6.57;0.73;;;9.00;99.90;8.30;99987;;;;548812;257;24143;-82
2022/01/14 09:10:46;;;;;;;8.03;1.90;;;9.00;99.90;8.30;99955;;;;553585;253;24131;-81
2022/01/14 09:13:18;;;;;;;1.33;0.80;;;9.00;99.90;8.20;99946;;;;543791;260;24136;-81
2022/01/14 09:15:42;;;;;;;5.03;1.70;;;9.00;99.90;8.20;99937;;;;541675;260;24157;-82
2022/01/14 09:18:10;;;;;;;2.10;1.50;;;9.00;99.90;8.20;99954;;;;548349;258;24122;-82
2022/01/14 09:20:38;;;;;;;7.50;1.90;;;9.00;99.90;8.30;99949;;;;553439;255;24109;-81
2022/01/14 09:23:12;;;;;;;4.23;1.33;;;9.00;99.90;8.40;99959;;;;543289;260;24177;-81
2022/01/14 09:25:33;;;;;;;6.43;1.30;;;9.10;99.90;8.30;99952;;;;548304;259;24178;-81
2022/01/14 09:28:01;;;;;;;7.80;1.13;;;9.10;99.90;8.30;99952;;;;547910;258;24102;-80
2022/01/14 09:30:29;;;;;;;10.80;1.90;;;9.10;99.90;8.30;99940;;;;553238;255;24108;-82
2022/01/14 09:32:57;;;;;;;0.73;0.57;;;9.10;99.90;8.30;99950;;;;543237;260;24115;-81
2022/01/14 09:35:25;;;;;;;6.60;1.60;;;9.10;99.90;8.20;99943;;;;548399;256;24123;-80
2022/01/14 09:37:54;;;;;;;3.30;1.37;;;9.10;99.90;8.30;99940;;;;553239;255;24158;-80
2022/01/14 09:40:21;;;;;;;6.30;1.93;;;9.10;99.90;8.20;99967;;;;538508;258;35308;-80
2022/01/14 09:42:49;;;;;;;8.23;1.87;;;9.00;99.90;8.20;99984;;;;543015;260;24113;-80
2022/01/14 09:45:20;;;;;;;9.23;1.47;;;9.00;99.90;8.30;99965;;;;556667;251;24119;-80
2022/01/14 09:47:51;;;;;;;8.57;1.47;;;9.10;99.90;8.40;99943;;;;548641;256;24124;-80
2022/01/14 09:50:22;;;;;;;9.33;2.23;;;9.10;99.90;8.30;99972;;;;543001;260;24142;-81
2022/01/14 09:52:51;;;;;;;6.20;1.20;;;9.10;99.90;8.30;99970;;;;555100;258;24187;-82
2022/01/14 09:55:16;;;;;;;6.20;1.50;;;9.10;99.90;8.30;99954;;;;543516;260;24201;-82
2022/01/14 09:57:44;;;;;;;5.07;1.30;;;9.10;99.90;8.40;99984;;;;560940;255;24153;-81
2022/01/14 10:00:12;;;;;;;5.37;1.60;;;9.10;99.90;8.30;99974;;;;546905;260;24184;-82
2022/01/14 10:02:40;;;;;;;4.40;1.07;;;9.10;99.90;8.40;99979;;;;552901;256;24153;-81
2022/01/14 10:05:08;;;;;;;1.67;0.67;;;9.20;99.90;8.40;100010;;;;545333;261;24354;-82
2022/01/14 10:07:36;;;;;;;5.10;1.40;;;9.20;99.90;8.40;99985;;;;561091;253;24153;-82
2022/01/14 10:10:23;;;;;;;5.27;1.23;;;9.20;99.90;8.40;99994;;;;556514;256;24140;-81
2022/01/14 10:12:50;;;;;;;6.77;1.50;;;9.20;99.90;8.30;99993;;;;561260;254;24160;-82
2022/01/14 10:15:21;;;;;;;3.03;1.60;;;9.10;99.90;8.30;99999;;;;556622;252;24208;-82
2022/01/14 10:17:46;;;;;;;5.07;1.67;;;9.10;99.90;8.30;100005;;;;548918;255;35425;-82
2022/01/14 10:20:14;;;;;;;8.33;1.60;;;9.00;99.90;8.30;100022;;;;565366;252;25520;-82
2022/01/14 10:22:42;;;;;;;4.57;1.10;;;9.10;99.90;8.20;100007;;;;553959;255;24229;-83
2022/01/14 10:25:09;;;;;;;4.33;1.67;;;9.10;99.90;8.20;100026;;;;553975;252;24150;-82
2022/01/14 10:27:46;;;;;;;8.53;1.83;;;9.00;99.90;8.10;100018;;;;538839;262;24182;-82
2022/01/14 10:30:18;;;;;;;6.17;2.17;;;8.90;99.90;8.10;100014;;;;544516;258;24229;-82
2022/01/14 11:10:42;;;;;;;4.57;2.03;;;8.40;99.90;7.60;100060;;;;617279;228;35730;-82
2022/01/14 11:13:11;;;;;;;8.07;1.40;;;8.50;99.90;7.70;100063;;;;606607;237;24079;-80
2022/01/14 11:15:35;;;;;;;3.40;1.10;;;8.50;99.90;7.80;100067;;;;606033;236;24045;-82
2022/01/14 11:18:06;;;;;;;2.53;0.93;;;8.60;99.90;7.80;100057;;;;606426;237;24084;-82
2022/01/14 11:20:33;;;;;;;11.23;1.70;;;8.60;99.90;7.80;100060;;;;605963;237;24051;-81
2022/01/14 11:23:17;;;;;;;5.80;1.57;;;8.60;99.90;7.80;100103;;;;606266;237;24088;-82
2022/01/14 11:26:02;;;;;;;1.57;1.03;;;8.60;99.90;7.70;100086;;;;606380;236;24053;-82
2022/01/14 11:28:33;;;;;;;3.47;1.60;;;8.50;99.90;7.60;100077;;;;606185;236;24062;-82
2022/01/14 11:31:01;;;;;;;3.60;1.10;;;8.40;99.90;7.50;100100;;;;606073;237;24122;-82
2022/01/14 11:33:41;;;;;;;3.30;1.20;;;8.30;99.90;7.50;100091;;;;604582;237;24071;-82
2022/01/14 11:36:12;;;;;;;4.43;1.03;;;8.30;99.90;7.50;100090;;;;606386;236;24081;-81
2022/01/14 11:38:36;;;;;;;4.00;1.33;;;8.20;99.90;7.40;100097;;;;605743;237;24045;-81
2022/01/14 11:41:08;;;;;;;7.00;1.47;;;8.30;99.90;7.30;100096;;;;605931;233;24060;-82
2022/01/14 11:43:40;;;;;;;7.07;1.00;;;8.20;99.90;7.30;100108;;;;605545;237;24036;-82
2022/01/14 11:46:11;;;;;;;9.43;2.03;;;8.00;99.90;7.20;100105;;;;605710;233;24139;-82
2022/01/14 11:48:40;;;;;;;10.17;2.03;;;8.00;99.90;7.20;100099;;;;605687;237;24049;-82
2022/01/14 11:51:05;;;;;;;6.63;2.30;;;8.00;99.90;7.20;100107;;;;604911;237;24053;-81
2022/01/14 11:53:33;;;;;;;8.63;1.87;;;8.00;99.90;7.20;100109;;;;605411;237;24103;-81
2022/01/14 11:56:01;;;;;;;3.07;1.20;;;8.00;99.90;7.20;100123;;;;605811;237;24049;-81
2022/01/14 11:58:29;;;;;;;3.47;1.30;;;8.00;99.90;7.20;100122;;;;605831;233;24060;-79
2022/01/14 12:00:56;;;;;;;3.03;1.10;;;8.00;99.90;7.20;100137;;;;606689;236;24034;-81
2022/01/14 12:03:28;;;;;;;8.43;1.40;;;8.00;99.90;7.20;100141;;;;608468;230;24061;-81
2022/01/14 12:05:58;;;;;;;5.10;1.33;;;8.00;99.90;7.30;100138;;;;608959;234;24038;-81
2022/01/14 12:08:31;;;;;;;3.37;1.47;;;8.00;99.90;7.30;100136;;;;608618;234;24008;-81
2022/01/14 12:11:11;;;;;;;3.53;1.63;;;8.10;99.90;7.50;100165;;;;608787;235;24041;-80
2022/01/14 12:14:04;;;;;;;4.93;1.40;;;8.30;99.90;7.60;100169;;;;608433;236;24010;-81
2022/01/14 12:16:44;;;;;;;6.23;1.97;;;8.30;99.90;7.60;100155;;;;608551;236;24030;-80
2022/01/14 12:19:07;;;;;;;3.57;1.47;;;8.40;99.90;7.60;100175;;;;609060;234;24049;-81
2022/01/14 12:21:48;;;;;;;5.80;1.80;;;8.40;99.90;7.60;100162;;;;609993;234;24047;-82
2022/01/14 12:24:19;;;;;;;3.97;1.67;;;8.40;99.90;7.50;100180;;;;609873;235;24020;-81
2022/01/14 12:26:52;;;;;;;7.17;1.53;;;8.40;99.90;7.50;100187;;;;609292;230;24050;-80
2022/01/14 12:29:24;;;;;;;5.50;1.90;;;8.40;99.90;7.40;100186;;;;609640;233;24087;-82
2022/01/14 12:32:09;;;;;;;2.27;1.50;;;8.30;99.90;7.20;100193;;;;608692;236;24030;-82
2022/01/14 12:34:39;;;;;;;4.30;1.70;;;8.10;99.90;7.00;100203;;;;609486;233;25054;-81